Time;durP1;ratioP1;P1;durP2;ratioP2;P2;SDS_P1;SDS_P2;PMS_P1;PMS_P2;Temp;Humidity;BMP_temperature;BMP_pressure;BME280_temperature;BME280_humidity;BME280_pressure;Samples;Min_cycle;Max_cycle;Signal;HPM_P1;HPM_P2
2021/12/30 00:04:54;;;;;;;15.18;9.63;;;;;;;2.21;100.00;100641.38;10412334;28;20144;-77
2021/12/30 00:09:55;;;;;;;16.65;9.80;;;;;;;2.14;100.00;100634.06;10419090;28;20139;-78
2021/12/30 00:14:56;;;;;;;14.73;9.27;;;;;;;2.29;100.00;100641.69;10420278;28;20056;-78
2021/12/30 00:19:57;;;;;;;16.33;9.90;;;;;;;0.84;100.00;100409.06;10418719;28;20083;-78
2021/12/30 00:24:57;;;;;;;17.92;10.63;;;;;;;2.23;100.00;100636.03;10418877;28;20046;-77
2021/12/30 00:29:58;;;;;;;17.58;10.20;;;;;;;2.31;100.00;100635.50;10419405;28;20045;-78
2021/12/30 00:34:59;;;;;;;16.10;10.05;;;;;;;2.07;100.00;100598.75;10419387;28;20493;-78
2021/12/30 00:40:00;;;;;;;16.17;10.52;;;;;;;2.36;100.00;100649.09;10419219;28;20505;-78
2021/12/30 00:45:01;;;;;;;15.55;9.73;;;;;;;2.12;100.00;100612.34;10418442;28;20033;-78
2021/12/30 00:50:03;;;;;;;13.82;8.90;;;;;;;1.13;100.00;100442.84;10418418;28;20452;-78
2021/12/30 00:55:05;;;;;;;12.50;8.32;;;;;;;1.45;100.00;100506.06;10418305;28;20091;-78
2021/12/30 01:00:09;;;;;;;13.90;8.68;;;;;;;2.37;100.00;100620.19;10418943;28;20041;-77
2021/12/30 01:05:10;;;;;;;13.67;8.57;;;;;;;1.71;100.00;100520.00;10417727;28;20410;-78
2021/12/30 01:10:16;;;;;;;15.13;9.43;;;;;;;2.31;100.00;100617.16;10417792;28;20274;-78
2021/12/30 01:15:19;;;;;;;14.10;8.95;;;;;;;2.37;100.00;100637.69;10418054;28;20465;-78
2021/12/30 01:20:21;;;;;;;12.75;8.85;;;;;;;2.36;100.00;100647.31;10417067;28;20083;-78
2021/12/30 01:25:22;;;;;;;15.80;10.00;;;;;;;2.00;100.00;100595.69;10417259;28;20075;-77
2021/12/30 01:30:23;;;;;;;17.02;10.48;;;;;;;1.30;100.00;100473.09;10416192;28;20163;-78
2021/12/30 01:35:25;;;;;;;14.15;8.93;;;;;;;2.14;100.00;100624.41;10415166;28;20045;-77
2021/12/30 01:40:28;;;;;;;20.52;10.88;;;;;;;1.69;100.00;100542.00;10416522;28;20124;-77
2021/12/30 01:45:28;;;;;;;16.15;10.27;;;;;;;2.22;100.00;100629.97;10417401;28;20049;-78
2021/12/30 01:50:29;;;;;;;18.27;10.60;;;;;;;2.21;100.00;100645.78;10415456;28;20056;-78
2021/12/30 01:55:33;;;;;;;19.08;10.25;;;;;;;2.10;100.00;100614.25;10415912;28;20045;-77
2021/12/30 02:00:38;;;;;;;18.17;10.68;;;;;;;1.29;100.00;100495.84;10416132;28;20041;-78
2021/12/30 02:05:39;;;;;;;18.10;10.68;;;;;;;2.16;100.00;100630.38;10415075;28;20103;-78
2021/12/30 02:10:42;;;;;;;19.05;10.68;;;;;;;1.85;100.00;100592.34;10416124;28;20535;-77
2021/12/30 02:15:43;;;;;;;15.57;10.30;;;;;;;1.81;100.00;100589.13;10415004;28;20565;-78
2021/12/30 02:20:45;;;;;;;18.90;11.40;;;;;;;1.26;100.00;100503.88;10414940;28;20057;-78
2021/12/30 02:25:48;;;;;;;19.67;10.93;;;;;;;1.87;100.00;100605.38;10414262;28;20037;-78
2021/12/30 02:30:49;;;;;;;18.77;10.93;;;;;;;1.18;100.00;100490.47;10414361;28;20056;-78
2021/12/30 02:35:51;;;;;;;17.55;10.98;;;;;;;1.04;100.00;100475.72;10414400;28;20410;-78
2021/12/30 02:40:56;;;;;;;21.80;11.07;;;;;;;1.88;100.00;100617.50;10413025;28;20529;-78
2021/12/30 02:45:57;;;;;;;;;;;;;;;2.08;100.00;100634.47;10414571;28;20040;-78
2021/12/30 02:51:01;;;;;;;19.02;10.95;;;;;;;1.72;100.00;100608.09;10413801;28;19952;-78
2021/12/30 02:56:03;;;;;;;21.90;12.00;;;;;;;1.75;100.00;100617.53;10413325;28;20044;-78
2021/12/30 03:01:11;;;;;;;20.42;11.35;;;;;;;1.96;100.00;100652.72;10413461;28;20114;-77
2021/12/30 03:06:14;;;;;;;17.80;10.75;;;;;;;1.22;100.00;100525.94;10413984;28;20045;-77
2021/12/30 03:11:16;;;;;;;21.42;11.82;;;;;;;1.75;100.00;100609.66;10406746;28;20049;-74
2021/12/30 03:16:22;;;;;;;30.48;11.02;;;;;;;1.47;100.00;100560.97;10402040;28;20060;-77
2021/12/30 03:21:23;;;;;;;21.70;10.45;;;;;;;1.95;100.00;100650.22;10384823;28;20436;-78
2021/12/30 03:26:24;;;;;;;49.38;11.18;;;;;;;1.13;100.00;100516.09;10372701;28;20049;-77
2021/12/30 03:31:25;;;;;;;77.03;11.13;;;;;;;1.90;100.00;100655.75;10372093;28;20046;-77
2021/12/30 03:36:26;;;;;;;39.40;10.63;;;;;;;1.61;100.00;100607.97;10371897;28;20038;-77
2021/12/30 03:41:28;;;;;;;44.22;10.30;;;;;;;1.88;100.00;100657.63;10373358;28;20049;-78
2021/12/30 03:46:30;;;;;;;35.53;10.75;;;;;;;1.52;100.00;100612.03;10379888;28;20065;-77
2021/12/30 03:51:37;;;;;;;47.05;10.40;;;;;;;1.94;100.00;100672.09;10379292;28;20099;-77
2021/12/30 03:56:38;;;;;;;40.35;9.98;;;;;;;1.60;100.00;100625.47;10378037;28;20042;-77
2021/12/30 04:01:40;;;;;;;39.40;9.52;;;;;;;1.93;100.00;100686.16;10380140;28;20049;-77
2021/12/30 04:06:41;;;;;;;51.40;8.65;;;;;;;1.79;100.00;100677.44;10425975;28;20064;-78
2021/12/30 04:11:41;;;;;;;34.17;8.18;;;;;;;1.86;100.00;100674.44;10426554;28;20104;-78
2021/12/30 04:16:42;;;;;;;35.78;8.55;;;;;;;1.28;100.00;100604.06;10437333;28;20037;-77
2021/12/30 04:21:44;;;;;;;63.55;8.73;;;;;;;1.26;100.00;100619.03;10439086;28;20069;-78
2021/12/30 04:26:44;;;;;;;85.03;9.55;;;;;;;0.69;100.00;100530.38;10439160;28;20596;-78
2021/12/30 04:31:46;;;;;;;62.05;8.57;;;;;;;0.07;100.00;100423.75;10437322;28;20128;-78
2021/12/30 04:36:47;;;;;;;27.50;7.90;;;;;;;1.67;100.00;100696.59;10437235;28;20045;-78
2021/12/30 04:41:48;;;;;;;62.35;8.25;;;;;;;1.16;100.00;100635.44;10438009;28;20041;-77
2021/12/30 04:46:49;;;;;;;75.75;9.57;;;;;;;1.37;100.00;100679.34;10435718;28;20505;-77
2021/12/30 04:51:50;;;;;;;105.15;10.90;;;;;;;1.53;100.00;100712.41;10416998;28;20512;-79
2021/12/30 04:56:51;;;;;;;70.20;8.80;;;;;;;1.52;100.00;100715.94;10414070;28;20567;-77
2021/12/30 05:01:52;;;;;;;60.83;8.80;;;;;;;1.54;100.00;100735.84;10376147;28;20042;-77
2021/12/30 05:06:53;;;;;;;48.55;8.38;;;;;;;0.64;100.00;100579.50;10376389;28;20042;-77
2021/12/30 05:11:53;;;;;;;72.72;9.38;;;;;;;1.59;100.00;100725.91;10376686;28;20037;-78
2021/12/30 05:16:56;;;;;;;58.83;8.57;;;;;;;1.37;100.00;100699.47;10376270;28;20038;-77
2021/12/30 05:21:57;;;;;;;50.25;8.98;;;;;;;1.43;100.00;100711.31;10376044;28;20533;-77
2021/12/30 05:26:58;;;;;;;90.38;9.25;;;;;;;1.30;100.00;100688.56;10375645;28;20038;-77
2021/12/30 05:31:59;;;;;;;26.17;7.70;;;;;;;1.35;100.00;100683.88;10393145;28;20045;-77
2021/12/30 05:37:00;;;;;;;18.63;7.50;;;;;;;1.79;100.00;100763.03;10458153;28;20036;-77
2021/12/30 05:42:01;;;;;;;63.05;8.70;;;;;;;1.03;100.00;100625.78;10416324;28;20401;-78
2021/12/30 05:47:03;;;;;;;34.63;7.43;;;;;;;1.67;100.00;100729.81;10397953;28;20049;-78
2021/12/30 05:52:04;;;;;;;13.02;8.07;;;;;;;1.40;100.00;100667.00;10416754;28;20492;-78
2021/12/30 05:57:05;;;;;;;15.07;7.80;;;;;;;1.84;100.00;100734.78;10416140;28;20046;-80
2021/12/30 06:02:06;;;;;;;15.13;8.57;;;;;;;0.98;100.00;100587.78;10416246;28;20079;-80
2021/12/30 06:07:07;;;;;;;14.65;9.18;;;;;;;2.15;100.00;100733.53;10413980;28;20041;-77
2021/12/30 06:12:09;;;;;;;12.48;7.75;;;;;;;1.81;100.00;100659.00;10415375;28;20405;-78
2021/12/30 06:17:13;;;;;;;12.82;8.35;;;;;;;1.79;100.00;100647.78;10414743;28;20048;-78
2021/12/30 06:22:15;;;;;;;13.52;8.77;;;;;;;2.74;100.00;100788.06;10430769;28;20068;-77
2021/12/30 06:27:16;;;;;;;10.23;6.95;;;;;;;2.20;100.00;100701.78;10414617;28;20045;-77
2021/12/30 06:32:17;;;;;;;14.63;7.30;;;;;;;2.96;100.00;100792.63;10411400;28;20190;-77
2021/12/30 06:37:18;;;;;;;11.98;7.55;;;;;;;2.59;100.00;100689.47;10415174;28;20076;-75
2021/12/30 06:42:18;;;;;;;11.13;7.00;;;;;;;3.24;100.00;100802.03;10414447;28;20037;-77
2021/12/30 06:47:19;;;;;;;14.90;8.73;;;;;;;2.64;100.00;100697.84;10415362;28;20045;-76
2021/12/30 06:52:20;;;;;;;14.18;8.52;;;;;;;2.32;100.00;100642.41;10414055;28;20038;-76
2021/12/30 06:57:21;;;;;;;11.45;7.68;;;;;;;2.47;100.00;100663.16;10413776;28;20056;-76
2021/12/30 07:02:23;;;;;;;12.88;8.10;;;;;;;2.96;100.00;100748.88;10414110;28;20387;-77
2021/12/30 07:07:23;;;;;;;15.25;9.23;;;;;;;3.33;100.00;100811.03;10411979;28;20033;-80
2021/12/30 07:12:24;;;;;;;16.42;8.30;;;;;;;3.27;100.00;100756.34;10414646;28;20051;-77
2021/12/30 07:17:30;;;;;;;12.35;8.35;;;;;;;3.63;100.00;100813.25;10454429;28;20052;-77
2021/12/30 07:22:30;;;;;;;14.45;8.57;;;;;;;2.87;100.00;100652.44;10454823;28;20068;-78
2021/12/30 07:27:31;;;;;;;15.40;7.88;;;;;;;3.87;100.00;100807.97;10443189;28;20037;-88
2021/12/30 07:32:32;;;;;;;12.20;7.68;;;;;;;3.63;100.00;100785.19;10394157;28;20505;-80
2021/12/30 07:37:33;;;;;;;12.95;8.00;;;;;;;3.70;100.00;100809.19;10454674;28;20044;-80
2021/12/30 07:42:34;;;;;;;11.30;7.32;;;;;;;3.64;100.00;100813.13;10454132;28;20497;-80
2021/12/30 07:47:36;;;;;;;15.75;8.40;;;;;;;2.97;100.00;100705.94;10453885;28;20040;-78
2021/12/30 07:52:37;;;;;;;13.75;7.97;;;;;;;3.60;100.00;100785.41;10454187;28;20512;-80
2021/12/30 07:57:38;;;;;;;14.70;8.48;;;;;;;3.58;100.00;100782.03;10453692;28;20448;-79
2021/12/30 08:02:42;;;;;;;13.95;8.50;;;;;;;3.32;100.00;100725.31;10452929;28;20477;-78
2021/12/30 08:07:47;;;;;;;14.50;8.20;;;;;;;3.86;100.00;100782.66;10454152;28;20509;-79
2021/12/30 08:12:49;;;;;;;16.27;8.10;;;;;;;3.47;100.00;100716.34;10453609;28;20079;-79
2021/12/30 08:17:51;;;;;;;15.43;8.40;;;;;;;3.78;100.00;100779.75;10452706;28;20063;-80
2021/12/30 08:22:52;;;;;;;16.00;9.85;;;;;;;2.39;100.00;100542.22;10453272;28;20045;-79
2021/12/30 08:27:54;;;;;;;13.32;8.45;;;;;;;3.24;99.90;100655.00;10455464;28;20041;-79
2021/12/30 08:32:55;;;;;;;17.55;8.75;;;;;;;3.32;100.00;100678.91;10460618;28;20059;-79
2021/12/30 08:37:56;;;;;;;14.77;8.90;;;;;;;3.88;99.33;100780.72;10461208;28;20614;-79
2021/12/30 08:42:57;;;;;;;14.15;8.70;;;;;;;3.61;98.10;100718.75;10460132;28;20171;-78
2021/12/30 08:47:58;;;;;;;13.80;8.50;;;;;;;3.74;98.90;100733.59;10459915;28;20510;-78
2021/12/30 08:52:59;;;;;;;15.10;9.70;;;;;;;3.91;99.79;100727.09;10459972;28;20049;-80
2021/12/30 08:58:00;;;;;;;17.35;9.88;;;;;;;4.04;98.18;100718.19;10459172;28;20037;-79
2021/12/30 09:03:04;;;;;;;13.90;9.13;;;;;;;4.24;98.97;100714.00;10458742;28;20049;-79
2021/12/30 09:08:06;;;;;;;16.58;10.25;;;;;;;4.65;98.52;100732.81;10459350;28;20048;-79
2021/12/30 09:13:08;;;;;;;16.85;10.70;;;;;;;4.82;98.06;100708.63;10459064;28;20037;-78
2021/12/30 09:18:10;;;;;;;17.42;9.82;;;;;;;5.08;96.79;100724.13;10458875;28;20041;-79
2021/12/30 09:23:12;;;;;;;14.48;9.02;;;;;;;5.13;96.00;100711.44;10458896;28;20064;-79
2021/12/30 09:28:13;;;;;;;13.82;8.50;;;;;;;4.40;95.83;100573.41;10458493;28;20229;-80
2021/12/30 09:33:15;;;;;;;14.15;9.35;;;;;;;5.15;94.70;100678.75;10458333;28;20040;-79
2021/12/30 09:38:16;;;;;;;14.57;8.77;;;;;;;5.14;94.26;100666.53;10473745;28;20049;-80
2021/12/30 09:43:17;;;;;;;14.93;9.85;;;;;;;4.91;93.84;100580.72;10458778;28;20037;-80
2021/12/30 09:48:19;;;;;;;18.35;8.77;;;;;;;5.87;92.61;100707.06;10458239;28;20124;-79
2021/12/30 09:53:23;;;;;;;18.70;9.73;;;;;;;5.82;91.23;100706.59;10458082;28;20087;-80
2021/12/30 09:58:24;;;;;;;;;;;;;;;6.12;92.25;100707.66;10457844;28;20565;-79
2021/12/30 10:03:27;;;;;;;19.20;10.07;;;;;;;5.83;91.79;100691.59;10456341;28;20015;-79
2021/12/30 10:08:28;;;;;;;14.38;8.77;;;;;;;6.00;91.52;100716.59;10457754;28;20048;-80
2021/12/30 10:13:32;;;;;;;13.98;8.93;;;;;;;5.80;92.28;100702.41;10455882;28;20041;-79
2021/12/30 10:18:45;;;;;;;12.37;8.43;;;;;;;5.88;90.47;100713.16;10457073;28;20508;-80
2021/12/30 10:23:53;;;;;;;15.05;8.48;;;;;;;5.63;91.80;100688.84;10456657;28;20067;-80
2021/12/30 10:29:11;;;;;;;12.88;9.10;;;;;;;5.69;91.71;100683.06;10456060;28;20048;-80
2021/12/30 10:34:12;;;;;;;13.88;8.98;;;;;;;5.56;91.10;100713.19;10455903;28;20040;-80
2021/12/30 10:39:15;;;;;;;15.05;9.10;;;;;;;4.85;90.85;100597.00;10455669;28;20516;-80
2021/12/30 10:44:17;;;;;;;15.23;9.52;;;;;;;5.13;90.51;100661.41;10456416;28;20064;-80
2021/12/30 10:49:27;;;;;;;14.85;9.45;;;;;;;5.00;91.63;100695.78;10454356;28;20059;-80
2021/12/30 10:54:31;;;;;;;15.07;9.38;;;;;;;5.26;91.28;100723.50;10455156;28;20037;-80
2021/12/30 10:59:40;;;;;;;15.25;8.00;;;;;;;5.17;89.21;100691.78;10454437;28;20112;-79
2021/12/30 11:04:45;;;;;;;15.50;9.40;;;;;;;5.08;91.34;100703.06;10442675;28;20033;-79
2021/12/30 11:09:55;;;;;;;18.20;10.02;;;;;;;3.91;91.08;100483.50;10410489;28;20046;-79
2021/12/30 11:14:57;;;;;;;18.50;9.68;;;;;;;4.77;91.10;100648.44;10413825;28;20045;-79
2021/12/30 11:20:07;;;;;;;15.10;9.73;;;;;;;3.87;91.43;100485.53;10407879;28;20046;-79
2021/12/30 11:25:11;;;;;;;16.10;10.13;;;;;;;3.89;90.22;100461.78;10412431;28;20544;-84
2021/12/30 11:30:17;;;;;;;19.42;9.57;;;;;;;5.08;90.42;100659.13;10434409;28;20137;-82
2021/12/30 11:35:22;;;;;;;19.70;10.43;;;;;;;4.92;90.37;100630.59;10405852;28;20041;-81
2021/12/30 11:40:25;;;;;;;19.38;11.20;;;;;;;4.41;90.63;100583.00;10406275;28;20124;-82
2021/12/30 11:45:32;;;;;;;17.15;10.55;;;;;;;4.65;91.37;100617.03;10403277;28;20559;-81
2021/12/30 11:50:38;;;;;;;19.25;11.18;;;;;;;5.19;90.82;100669.63;10409242;28;20099;-80
2021/12/30 11:55:57;;;;;;;18.75;11.07;;;;;;;5.66;90.72;100735.22;10405764;28;20033;-82
2021/12/30 12:01:10;;;;;;;18.40;10.98;;;;;;;4.70;90.20;100609.59;10406677;28;20120;-82
2021/12/30 12:11:55;;;;;;;19.75;12.00;;;;;;;5.15;91.06;100743.75;10414253;28;20033;-81
2021/12/30 12:17:06;;;;;;;20.48;12.40;;;;;;;5.06;91.70;100747.13;10414111;28;20045;-80
2021/12/30 12:22:25;;;;;;;25.48;11.90;;;;;;;4.98;91.03;100730.13;10412234;28;20049;-81
2021/12/30 12:27:34;;;;;;;21.13;11.98;;;;;;;4.88;92.03;100723.09;10414366;28;20486;-80
2021/12/30 12:32:39;;;;;;;20.95;11.38;;;;;;;4.23;91.14;100622.09;10412822;28;20052;-80
2021/12/30 12:37:47;;;;;;;;;;;;;;;5.09;90.49;100747.72;10414466;28;20072;-80
2021/12/30 12:42:51;;;;;;;22.10;11.63;;;;;;;4.76;91.53;100759.13;10414623;28;20390;-79
2021/12/30 12:48:17;;;;;;;18.13;10.93;;;;;;;4.61;92.14;100753.28;10415653;28;20041;-80
2021/12/30 12:53:38;;;;;;;15.15;9.73;;;;;;;4.20;92.52;100735.41;10416838;28;20505;-81
2021/12/30 12:58:46;;;;;;;22.38;10.55;;;;;;;4.29;93.02;100753.94;10417024;28;20053;-81
2021/12/30 13:03:48;;;;;;;17.83;10.10;;;;;;;4.28;93.10;100756.72;10387654;28;20469;-81
2021/12/30 13:08:51;;;;;;;19.25;9.55;;;;;;;4.12;93.03;100762.28;10407096;28;20049;-81
2021/12/30 13:13:52;;;;;;;17.92;10.07;;;;;;;3.74;93.42;100736.22;10398636;28;20084;-80
2021/12/30 13:19:15;;;;;;;15.50;9.38;;;;;;;3.73;93.60;100764.31;10391122;28;20059;-79
2021/12/30 13:24:41;;;;;;;16.55;9.90;;;;;;;3.54;94.68;100756.13;10385672;28;20054;-79
2021/12/30 13:29:51;;;;;;;16.63;9.35;;;;;;;3.62;93.98;100778.25;10410425;28;20505;-78
2021/12/30 13:34:52;;;;;;;18.20;11.95;;;;;;;3.56;94.00;100781.34;10413861;28;20037;-79
2021/12/30 13:39:55;;;;;;;18.13;10.57;;;;;;;3.30;94.28;100759.59;10417277;28;20179;-79
2021/12/30 13:44:59;;;;;;;17.55;11.05;;;;;;;2.88;95.20;100695.25;10422384;28;20135;-79
2021/12/30 13:50:00;;;;;;;;;;;;;;;3.56;94.09;100802.34;10376553;28;20141;-80
2021/12/30 13:55:17;;;;;;;24.42;12.45;;;;;;;3.31;94.61;100782.25;10375634;28;20012;-79
2021/12/30 14:00:19;;;;;;;18.75;9.90;;;;;;;2.48;94.88;100635.13;10375239;28;20386;-79
2021/12/30 14:05:23;;;;;;;17.98;10.43;;;;;;;3.65;95.11;100812.19;10385170;28;20045;-79
2021/12/30 14:10:24;;;;;;;17.35;10.23;;;;;;;3.48;94.98;100782.84;10392683;28;20064;-80
2021/12/30 14:15:25;;;;;;;20.17;10.75;;;;;;;3.69;95.17;100811.97;10393933;28;20053;-80
2021/12/30 14:20:27;;;;;;;19.48;10.98;;;;;;;2.69;95.95;100649.38;10374101;28;20093;-79
2021/12/30 14:25:36;;;;;;;19.13;10.27;;;;;;;3.66;96.04;100818.28;10377046;28;20088;-79
2021/12/30 14:30:37;;;;;;;16.73;9.52;;;;;;;3.60;96.10;100827.44;10380748;28;20053;-79
2021/12/30 14:35:38;;;;;;;20.52;10.02;;;;;;;3.46;96.91;100800.47;10440350;28;20051;-80
2021/12/30 14:40:39;;;;;;;15.73;10.02;;;;;;;3.57;96.93;100819.78;10414717;28;20061;-87
2021/12/30 14:45:42;;;;;;;16.75;9.98;;;;;;;2.71;97.17;100684.19;10376232;28;20037;-86
2021/12/30 14:50:43;;;;;;;18.33;10.27;;;;;;;3.54;97.02;100825.25;10412621;28;20050;-87
2021/12/30 14:55:45;;;;;;;19.70;10.90;;;;;;;3.42;97.39;100816.47;10410370;28;20144;-86
2021/12/30 15:00:49;;;;;;;18.20;10.05;;;;;;;2.24;97.27;100625.47;10411328;28;20045;-86
2021/12/30 15:05:50;;;;;;;21.27;10.33;;;;;;;3.28;97.96;100792.16;10408610;28;20069;-85
2021/12/30 15:10:52;;;;;;;17.50;10.32;;;;;;;2.16;97.76;100617.28;10411068;28;20390;-86
2021/12/30 15:15:52;;;;;;;17.75;10.55;;;;;;;3.48;97.94;100825.69;10410068;28;20063;-87
2021/12/30 15:20:53;;;;;;;16.58;9.77;;;;;;;3.53;98.05;100833.22;10407052;28;20134;-82
2021/12/30 15:25:55;;;;;;;18.20;9.65;;;;;;;1.91;97.76;100568.34;10384811;28;20100;-84
2021/12/30 15:30:56;;;;;;;18.10;10.13;;;;;;;3.32;98.16;100796.22;10371879;28;20077;-83
2021/12/30 15:35:57;;;;;;;20.98;10.25;;;;;;;3.63;97.57;100815.88;10374917;28;20080;-83
2021/12/30 15:40:58;;;;;;;19.38;10.77;;;;;;;3.04;97.46;100721.25;10410287;28;20095;-86
2021/12/30 15:45:59;;;;;;;17.70;9.40;;;;;;;2.96;97.70;100682.41;10413648;28;20059;-85
2021/12/30 15:51:00;;;;;;;18.95;10.15;;;;;;;2.48;97.29;100598.41;10421683;28;20067;-86
2021/12/30 15:56:02;;;;;;;18.13;10.07;;;;;;;3.38;97.33;100748.50;10434284;28;20060;-85
2021/12/30 16:01:03;;;;;;;21.23;11.43;;;;;;;4.03;97.40;100849.72;10421404;28;20386;-86
2021/12/30 16:06:04;;;;;;;16.98;10.43;;;;;;;2.84;97.54;100650.06;10418959;28;20037;-85
2021/12/30 16:11:05;;;;;;;22.00;11.13;;;;;;;3.72;97.51;100799.44;10398126;28;20050;-85
2021/12/30 16:16:06;;;;;;;20.65;10.70;;;;;;;4.13;97.23;100853.38;10417293;28;20041;-85
2021/12/30 16:21:07;;;;;;;17.25;10.32;;;;;;;4.07;97.44;100853.81;10386400;28;20057;-85
2021/12/30 16:26:09;;;;;;;19.13;11.00;;;;;;;3.99;96.95;100833.34;10405017;28;20505;-84
2021/12/30 16:31:11;;;;;;;18.38;10.20;;;;;;;3.92;96.89;100824.25;10407914;28;20049;-85
2021/12/30 16:36:12;;;;;;;19.23;11.10;;;;;;;3.76;97.47;100802.66;10439326;28;20037;-85
2021/12/30 16:41:13;;;;;;;24.83;11.88;;;;;;;2.23;97.19;100558.22;10460690;28;20555;-84
2021/12/30 16:46:14;;;;;;;21.30;11.32;;;;;;;3.69;97.77;100801.44;10452163;28;20042;-85
2021/12/30 16:51:15;;;;;;;27.20;12.20;;;;;;;3.83;98.08;100828.38;10417559;28;20479;-86
2021/12/30 16:56:16;;;;;;;24.00;12.88;;;;;;;2.89;98.02;100684.66;10418969;28;20041;-86
2021/12/30 17:01:17;;;;;;;24.08;12.82;;;;;;;3.79;98.51;100847.94;10418847;28;20041;-85
2021/12/30 17:06:20;;;;;;;26.20;13.43;;;;;;;3.31;98.73;100771.75;10418723;28;20067;-82
2021/12/30 17:11:21;;;;;;;26.75;14.25;;;;;;;3.79;98.81;100844.47;10411272;28;20049;-75
2021/12/30 17:16:22;;;;;;;28.52;14.10;;;;;;;3.03;98.64;100727.44;10408852;28;20034;-79
2021/12/30 17:21:23;;;;;;;24.63;13.65;;;;;;;2.86;98.71;100697.16;10405097;28;20160;-79
2021/12/30 17:26:24;;;;;;;22.83;13.35;;;;;;;3.73;99.06;100835.25;10376785;28;20148;-78
2021/12/30 17:31:26;;;;;;;22.35;12.80;;;;;;;3.81;98.93;100853.94;10378200;28;20541;-77
2021/12/30 17:36:27;;;;;;;26.27;14.73;;;;;;;3.69;99.35;100822.47;10376657;28;20398;-77
2021/12/30 17:41:28;;;;;;;27.55;14.27;;;;;;;2.87;99.49;100704.06;10385628;28;20053;-78
2021/12/30 17:46:31;;;;;;;25.55;13.73;;;;;;;3.52;99.45;100810.53;10375852;28;20052;-78
2021/12/30 17:51:32;;;;;;;26.00;13.82;;;;;;;3.33;99.66;100783.00;10374753;28;20796;-77
2021/12/30 17:56:34;;;;;;;26.55;14.75;;;;;;;3.83;99.96;100864.34;10375365;28;20049;-77
2021/12/30 18:01:35;;;;;;;23.33;14.32;;;;;;;3.66;100.00;100850.63;10373321;28;20477;-77
2021/12/30 18:06:36;;;;;;;22.50;12.95;;;;;;;2.88;100.00;100705.75;10373298;28;20083;-78
2021/12/30 18:11:38;;;;;;;22.17;13.25;;;;;;;3.92;100.00;100849.66;10385141;28;20048;-78
2021/12/30 18:16:39;;;;;;;18.67;11.85;;;;;;;3.86;100.00;100843.94;10374267;28;20045;-78
2021/12/30 18:21:40;;;;;;;20.88;12.35;;;;;;;3.80;99.84;100841.75;10372900;28;20414;-78
2021/12/30 18:26:40;;;;;;;19.58;11.98;;;;;;;3.03;99.76;100709.91;10373550;28;20573;-78
2021/12/30 18:31:41;;;;;;;21.70;11.35;;;;;;;3.41;100.00;100785.91;10374146;28;20038;-79
2021/12/30 18:36:42;;;;;;;17.08;11.18;;;;;;;3.79;100.00;100866.34;10374508;28;20057;-78
2021/12/30 18:41:43;;;;;;;13.25;9.13;;;;;;;3.46;100.00;100798.69;10372896;28;20038;-78
2021/12/30 18:46:44;;;;;;;13.70;9.00;;;;;;;3.66;100.00;100850.63;10372977;28;20069;-78
2021/12/30 18:51:45;;;;;;;13.25;8.68;;;;;;;3.02;100.00;100738.88;10372950;28;20046;-78
2021/12/30 18:56:46;;;;;;;11.75;8.35;;;;;;;2.37;99.69;100637.69;10373511;28;20535;-77
2021/12/30 19:01:48;;;;;;;13.30;8.50;;;;;;;3.59;100.00;100845.91;10370996;28;20568;-77
2021/12/30 19:06:49;;;;;;;15.43;9.90;;;;;;;3.29;100.00;100791.19;10371714;28;20053;-78
2021/12/30 19:11:53;;;;;;;14.05;8.63;;;;;;;3.23;100.00;100782.00;10372528;28;20073;-78
2021/12/30 19:16:54;;;;;;;14.73;8.85;;;;;;;3.17;100.00;100769.28;10372413;28;20472;-77
2021/12/30 19:21:55;;;;;;;12.57;8.15;;;;;;;3.37;100.00;100815.13;10371974;28;20093;-78
2021/12/30 19:26:58;;;;;;;13.02;8.45;;;;;;;3.69;100.00;100861.88;10371692;28;20509;-77
2021/12/30 19:31:59;;;;;;;13.65;8.75;;;;;;;3.44;100.00;100813.75;10371761;28;20465;-77
2021/12/30 19:37:00;;;;;;;14.15;8.98;;;;;;;3.70;100.00;100858.28;10372236;28;20112;-78
2021/12/30 19:42:01;;;;;;;14.80;8.75;;;;;;;3.70;100.00;100855.66;10371784;28;20092;-78
2021/12/30 19:47:02;;;;;;;14.48;9.10;;;;;;;3.71;100.00;100849.44;10372709;28;20041;-77
2021/12/30 19:52:03;;;;;;;13.63;8.13;;;;;;;2.50;100.00;100654.22;10371736;28;20061;-78
2021/12/30 19:57:05;;;;;;;16.98;8.90;;;;;;;3.69;100.00;100846.94;10371967;28;20136;-78
2021/12/30 20:02:06;;;;;;;13.52;8.77;;;;;;;2.93;100.00;100722.84;10370473;28;20042;-77
2021/12/30 20:07:07;;;;;;;14.80;9.05;;;;;;;2.62;100.00;100661.22;10371016;28;20060;-78
2021/12/30 20:12:08;;;;;;;12.65;8.02;;;;;;;3.74;100.00;100846.59;10369573;28;20460;-79
2021/12/30 20:17:09;;;;;;;14.95;9.32;;;;;;;3.33;100.00;100769.88;10383936;28;20049;-78
2021/12/30 20:22:10;;;;;;;13.73;8.70;;;;;;;3.16;100.00;100747.44;10395117;28;20140;-78
2021/12/30 20:27:11;;;;;;;13.38;9.00;;;;;;;3.67;100.00;100817.31;10409982;28;20045;-78
2021/12/30 20:32:12;;;;;;;15.30;9.00;;;;;;;2.67;100.00;100640.75;10419990;28;20137;-78
2021/12/30 20:37:13;;;;;;;15.60;8.65;;;;;;;3.29;100.00;100747.41;10419197;28;20045;-78
2021/12/30 20:42:14;;;;;;;12.60;8.35;;;;;;;3.72;100.00;100804.69;10434878;28;20492;-78
2021/12/30 20:47:15;;;;;;;11.85;7.88;;;;;;;3.69;100.00;100804.91;10418517;28;20555;-77
2021/12/30 20:52:16;;;;;;;13.38;8.38;;;;;;;3.43;100.00;100759.53;10418504;28;20037;-77
2021/12/30 20:57:17;;;;;;;11.40;7.43;;;;;;;3.41;100.00;100756.16;10418138;28;20072;-78
2021/12/30 21:02:18;;;;;;;8.93;5.97;;;;;;;2.93;100.00;100680.00;10417954;28;20037;-77
2021/12/30 21:07:19;;;;;;;8.55;5.95;;;;;;;3.43;100.00;100754.28;10417766;28;20402;-78
2021/12/30 21:12:20;;;;;;;9.20;5.82;;;;;;;3.84;100.00;100811.66;10417319;28;20041;-78
2021/12/30 21:17:24;;;;;;;7.78;4.95;;;;;;;3.05;100.00;100687.03;10418231;28;20037;-78
2021/12/30 21:22:26;;;;;;;7.32;3.80;;;;;;;3.10;100.00;100699.78;10417887;28;20057;-78
2021/12/30 21:27:29;;;;;;;6.80;4.22;;;;;;;3.35;100.00;100744.34;10417784;28;20460;-78
2021/12/30 21:32:32;;;;;;;6.85;4.60;;;;;;;3.01;100.00;100701.28;10416764;28;20041;-78
2021/12/30 21:37:33;;;;;;;6.15;4.15;;;;;;;2.76;100.00;100638.44;10417363;28;20053;-78
2021/12/30 21:42:34;;;;;;;6.97;4.47;;;;;;;3.47;100.00;100768.88;10417158;28;20045;-78
2021/12/30 21:47:35;;;;;;;6.97;4.90;;;;;;;3.58;100.00;100787.28;10416087;28;20056;-77
2021/12/30 21:52:36;;;;;;;10.27;5.38;;;;;;;3.62;100.00;100785.28;10417354;28;20056;-77
2021/12/30 21:57:37;;;;;;;11.88;5.43;;;;;;;3.61;100.00;100789.69;10416068;28;20048;-77
2021/12/30 22:02:39;;;;;;;8.43;5.20;;;;;;;3.66;100.00;100808.59;10416240;28;20051;-78
2021/12/30 22:07:40;;;;;;;9.55;5.53;;;;;;;2.79;100.00;100659.19;10415619;28;20561;-78
2021/12/30 22:12:42;;;;;;;8.13;5.40;;;;;;;3.56;100.00;100775.22;10415714;28;20045;-78
2021/12/30 22:17:43;;;;;;;8.80;5.80;;;;;;;3.41;100.00;100753.53;10414874;28;20037;-77
2021/12/30 22:22:44;;;;;;;10.23;7.03;;;;;;;3.53;100.00;100768.41;10415136;28;20065;-78
2021/12/30 22:27:46;;;;;;;10.40;7.53;;;;;;;3.63;100.00;100803.56;10414504;28;20054;-78
2021/12/30 22:32:47;;;;;;;12.02;7.88;;;;;;;3.41;100.00;100761.41;10414243;28;20539;-79
2021/12/30 22:37:48;;;;;;;11.20;7.70;;;;;;;2.85;100.00;100672.72;10414615;28;20060;-78
2021/12/30 22:42:49;;;;;;;10.98;7.82;;;;;;;3.53;100.00;100792.06;10415096;28;20041;-78
2021/12/30 22:47:49;;;;;;;13.35;8.63;;;;;;;3.61;100.00;100794.94;10413554;28;20037;-78
2021/12/30 22:52:50;;;;;;;12.73;9.82;;;;;;;2.28;100.00;100576.28;10414566;28;20030;-78
2021/12/30 22:57:51;;;;;;;12.15;9.30;;;;;;;3.56;100.00;100785.72;10414464;28;20431;-77
2021/12/30 23:02:52;;;;;;;13.30;10.00;;;;;;;2.92;100.00;100691.47;10414426;28;20136;-77
2021/12/30 23:07:53;;;;;;;13.80;10.27;;;;;;;3.00;100.00;100704.88;10414404;28;20045;-78